sensor_id;sensor_type;location;lat;lon;timestamp;P1;durP1;ratioP1;P2;durP2;ratioP2
10827;SDS011;5467;59.334;13.512;2022-12-18T00:01:13;0.80;;;0.80;;
10827;SDS011;5467;59.334;13.512;2022-12-18T00:03:42;0.80;;;0.80;;
10827;SDS011;5467;59.334;13.512;2022-12-18T00:06:09;0.70;;;0.70;;
10827;SDS011;5467;59.334;13.512;2022-12-18T00:08:37;0.70;;;0.70;;
10827;SDS011;5467;59.334;13.512;2022-12-18T00:11:04;0.70;;;0.70;;
10827;SDS011;5467;59.334;13.512;2022-12-18T00:13:33;0.70;;;0.70;;
10827;SDS011;5467;59.334;13.512;2022-12-18T00:16:01;0.80;;;0.80;;
10827;SDS011;5467;59.334;13.512;2022-12-18T00:18:28;0.60;;;0.60;;
10827;SDS011;5467;59.334;13.512;2022-12-18T00:20:58;0.60;;;0.60;;
10827;SDS011;5467;59.334;13.512;2022-12-18T00:23:26;0.70;;;0.70;;
10827;SDS011;5467;59.334;13.512;2022-12-18T00:25:53;0.73;;;0.73;;
10827;SDS011;5467;59.334;13.512;2022-12-18T00:28:20;0.70;;;0.70;;
10827;SDS011;5467;59.334;13.512;2022-12-18T00:30:48;0.60;;;0.60;;
10827;SDS011;5467;59.334;13.512;2022-12-18T00:33:16;0.70;;;0.70;;
10827;SDS011;5467;59.334;13.512;2022-12-18T00:35:43;0.80;;;0.80;;
10827;SDS011;5467;59.334;13.512;2022-12-18T00:38:10;0.70;;;0.70;;
10827;SDS011;5467;59.334;13.512;2022-12-18T00:40:38;0.60;;;0.60;;
10827;SDS011;5467;59.334;13.512;2022-12-18T00:43:05;0.70;;;0.70;;
10827;SDS011;5467;59.334;13.512;2022-12-18T00:45:33;0.70;;;0.70;;
10827;SDS011;5467;59.334;13.512;2022-12-18T00:48:02;0.60;;;0.60;;
10827;SDS011;5467;59.334;13.512;2022-12-18T00:50:29;0.60;;;0.60;;
10827;SDS011;5467;59.334;13.512;2022-12-18T00:52:56;0.80;;;0.80;;
10827;SDS011;5467;59.334;13.512;2022-12-18T00:55:23;0.70;;;0.70;;
10827;SDS011;5467;59.334;13.512;2022-12-18T00:57:50;0.67;;;0.67;;
10827;SDS011;5467;59.334;13.512;2022-12-18T01:00:18;0.60;;;0.60;;
10827;SDS011;5467;59.334;13.512;2022-12-18T01:02:45;0.50;;;0.50;;
10827;SDS011;5467;59.334;13.512;2022-12-18T01:05:14;0.60;;;0.60;;
10827;SDS011;5467;59.334;13.512;2022-12-18T01:07:41;0.50;;;0.50;;
10827;SDS011;5467;59.334;13.512;2022-12-18T01:10:09;0.50;;;0.50;;
10827;SDS011;5467;59.334;13.512;2022-12-18T01:12:38;0.50;;;0.50;;
10827;SDS011;5467;59.334;13.512;2022-12-18T01:15:06;0.47;;;0.47;;
10827;SDS011;5467;59.334;13.512;2022-12-18T01:17:34;0.50;;;0.50;;
10827;SDS011;5467;59.334;13.512;2022-12-18T01:20:01;0.50;;;0.50;;
10827;SDS011;5467;59.334;13.512;2022-12-18T01:22:33;0.60;;;0.60;;
10827;SDS011;5467;59.334;13.512;2022-12-18T01:25:00;0.50;;;0.50;;
10827;SDS011;5467;59.334;13.512;2022-12-18T01:27:27;0.50;;;0.50;;
10827;SDS011;5467;59.334;13.512;2022-12-18T01:29:54;0.50;;;0.50;;
10827;SDS011;5467;59.334;13.512;2022-12-18T01:32:21;0.60;;;0.60;;
10827;SDS011;5467;59.334;13.512;2022-12-18T01:34:49;0.60;;;0.60;;
10827;SDS011;5467;59.334;13.512;2022-12-18T01:37:16;0.60;;;0.60;;
10827;SDS011;5467;59.334;13.512;2022-12-18T01:39:44;0.53;;;0.53;;
10827;SDS011;5467;59.334;13.512;2022-12-18T01:42:12;0.50;;;0.50;;
10827;SDS011;5467;59.334;13.512;2022-12-18T01:44:54;0.50;;;0.50;;
10827;SDS011;5467;59.334;13.512;2022-12-18T01:47:27;0.60;;;0.60;;
10827;SDS011;5467;59.334;13.512;2022-12-18T01:49:58;0.53;;;0.53;;
10827;SDS011;5467;59.334;13.512;2022-12-18T01:52:28;0.60;;;0.60;;
10827;SDS011;5467;59.334;13.512;2022-12-18T01:54:59;0.60;;;0.60;;
10827;SDS011;5467;59.334;13.512;2022-12-18T01:57:28;0.60;;;0.60;;
10827;SDS011;5467;59.334;13.512;2022-12-18T01:59:57;0.50;;;0.50;;
10827;SDS011;5467;59.334;13.512;2022-12-18T02:02:27;0.60;;;0.60;;
10827;SDS011;5467;59.334;13.512;2022-12-18T02:04:55;0.50;;;0.50;;
10827;SDS011;5467;59.334;13.512;2022-12-18T02:07:25;0.50;;;0.50;;
10827;SDS011;5467;59.334;13.512;2022-12-18T02:10:00;0.50;;;0.50;;
10827;SDS011;5467;59.334;13.512;2022-12-18T02:12:33;0.50;;;0.50;;
10827;SDS011;5467;59.334;13.512;2022-12-18T02:15:10;0.50;;;0.50;;
10827;SDS011;5467;59.334;13.512;2022-12-18T02:17:43;0.50;;;0.50;;
10827;SDS011;5467;59.334;13.512;2022-12-18T02:20:17;0.50;;;0.50;;
10827;SDS011;5467;59.334;13.512;2022-12-18T02:22:52;0.50;;;0.50;;
10827;SDS011;5467;59.334;13.512;2022-12-18T02:25:38;0.60;;;0.60;;
10827;SDS011;5467;59.334;13.512;2022-12-18T02:28:19;0.57;;;0.57;;
10827;SDS011;5467;59.334;13.512;2022-12-18T02:30:49;0.50;;;0.50;;
10827;SDS011;5467;59.334;13.512;2022-12-18T02:33:20;0.50;;;0.50;;
10827;SDS011;5467;59.334;13.512;2022-12-18T02:35:47;0.50;;;0.50;;
10827;SDS011;5467;59.334;13.512;2022-12-18T02:38:16;0.50;;;0.50;;
10827;SDS011;5467;59.334;13.512;2022-12-18T02:40:44;0.50;;;0.50;;
10827;SDS011;5467;59.334;13.512;2022-12-18T02:43:15;0.50;;;0.50;;
10827;SDS011;5467;59.334;13.512;2022-12-18T02:45:49;0.50;;;0.50;;
10827;SDS011;5467;59.334;13.512;2022-12-18T02:48:20;0.50;;;0.50;;
10827;SDS011;5467;59.334;13.512;2022-12-18T02:50:51;0.67;;;0.67;;
10827;SDS011;5467;59.334;13.512;2022-12-18T02:53:27;0.50;;;0.50;;
10827;SDS011;5467;59.334;13.512;2022-12-18T02:56:01;0.60;;;0.60;;
10827;SDS011;5467;59.334;13.512;2022-12-18T02:58:36;0.40;;;0.40;;
10827;SDS011;5467;59.334;13.512;2022-12-18T03:01:11;0.60;;;0.60;;
10827;SDS011;5467;59.334;13.512;2022-12-18T03:03:46;0.50;;;0.50;;
10827;SDS011;5467;59.334;13.512;2022-12-18T03:06:18;0.60;;;0.60;;
10827;SDS011;5467;59.334;13.512;2022-12-18T03:08:51;0.47;;;0.47;;
10827;SDS011;5467;59.334;13.512;2022-12-18T03:11:23;0.53;;;0.53;;
10827;SDS011;5467;59.334;13.512;2022-12-18T03:14:07;0.50;;;0.50;;
10827;SDS011;5467;59.334;13.512;2022-12-18T03:16:37;0.40;;;0.40;;
10827;SDS011;5467;59.334;13.512;2022-12-18T03:19:08;0.50;;;0.50;;
10827;SDS011;5467;59.334;13.512;2022-12-18T03:21:42;0.50;;;0.50;;
10827;SDS011;5467;59.334;13.512;2022-12-18T03:24:11;0.40;;;0.40;;
10827;SDS011;5467;59.334;13.512;2022-12-18T03:26:40;0.50;;;0.50;;
10827;SDS011;5467;59.334;13.512;2022-12-18T03:29:14;0.50;;;0.50;;
10827;SDS011;5467;59.334;13.512;2022-12-18T03:31:47;0.50;;;0.50;;
10827;SDS011;5467;59.334;13.512;2022-12-18T03:34:17;0.60;;;0.60;;
10827;SDS011;5467;59.334;13.512;2022-12-18T03:36:50;0.40;;;0.40;;
10827;SDS011;5467;59.334;13.512;2022-12-18T03:39:17;0.50;;;0.50;;
10827;SDS011;5467;59.334;13.512;2022-12-18T03:41:46;0.60;;;0.60;;
10827;SDS011;5467;59.334;13.512;2022-12-18T03:44:20;0.50;;;0.50;;
10827;SDS011;5467;59.334;13.512;2022-12-18T03:46:55;0.50;;;0.50;;
10827;SDS011;5467;59.334;13.512;2022-12-18T03:49:32;0.50;;;0.50;;
10827;SDS011;5467;59.334;13.512;2022-12-18T03:52:05;0.50;;;0.50;;
10827;SDS011;5467;59.334;13.512;2022-12-18T03:54:36;0.47;;;0.47;;
10827;SDS011;5467;59.334;13.512;2022-12-18T03:57:06;0.40;;;0.40;;
10827;SDS011;5467;59.334;13.512;2022-12-18T03:59:39;0.50;;;0.50;;
10827;SDS011;5467;59.334;13.512;2022-12-18T04:02:07;0.50;;;0.50;;
10827;SDS011;5467;59.334;13.512;2022-12-18T04:04:35;0.50;;;0.50;;
10827;SDS011;5467;59.334;13.512;2022-12-18T04:07:03;0.40;;;0.40;;
10827;SDS011;5467;59.334;13.512;2022-12-18T04:09:32;0.50;;;0.50;;
10827;SDS011;5467;59.334;13.512;2022-12-18T04:12:00;0.50;;;0.50;;
10827;SDS011;5467;59.334;13.512;2022-12-18T04:14:27;0.50;;;0.50;;
10827;SDS011;5467;59.334;13.512;2022-12-18T04:16:56;0.50;;;0.50;;
10827;SDS011;5467;59.334;13.512;2022-12-18T04:19:23;0.60;;;0.60;;
10827;SDS011;5467;59.334;13.512;2022-12-18T04:21:50;0.53;;;0.53;;
10827;SDS011;5467;59.334;13.512;2022-12-18T04:24:17;0.53;;;0.53;;
10827;SDS011;5467;59.334;13.512;2022-12-18T04:26:44;0.53;;;0.53;;
10827;SDS011;5467;59.334;13.512;2022-12-18T04:29:11;0.60;;;0.60;;
10827;SDS011;5467;59.334;13.512;2022-12-18T04:31:38;0.60;;;0.60;;
10827;SDS011;5467;59.334;13.512;2022-12-18T04:34:07;0.60;;;0.60;;
10827;SDS011;5467;59.334;13.512;2022-12-18T04:36:34;0.60;;;0.60;;
10827;SDS011;5467;59.334;13.512;2022-12-18T04:39:02;0.60;;;0.60;;
10827;SDS011;5467;59.334;13.512;2022-12-18T04:41:29;0.60;;;0.60;;
10827;SDS011;5467;59.334;13.512;2022-12-18T04:43:56;0.60;;;0.60;;
10827;SDS011;5467;59.334;13.512;2022-12-18T04:46:23;0.70;;;0.70;;
10827;SDS011;5467;59.334;13.512;2022-12-18T04:48:50;0.80;;;0.80;;
10827;SDS011;5467;59.334;13.512;2022-12-18T04:51:19;0.70;;;0.70;;
10827;SDS011;5467;59.334;13.512;2022-12-18T04:53:46;0.50;;;0.50;;
10827;SDS011;5467;59.334;13.512;2022-12-18T04:56:14;0.50;;;0.50;;
10827;SDS011;5467;59.334;13.512;2022-12-18T04:58:43;0.60;;;0.60;;
10827;SDS011;5467;59.334;13.512;2022-12-18T05:01:11;0.50;;;0.50;;
10827;SDS011;5467;59.334;13.512;2022-12-18T05:03:39;0.70;;;0.70;;
10827;SDS011;5467;59.334;13.512;2022-12-18T05:06:06;0.70;;;0.70;;
10827;SDS011;5467;59.334;13.512;2022-12-18T05:08:35;0.70;;;0.70;;
10827;SDS011;5467;59.334;13.512;2022-12-18T05:11:03;0.53;;;0.53;;
10827;SDS011;5467;59.334;13.512;2022-12-18T05:13:32;0.50;;;0.50;;
10827;SDS011;5467;59.334;13.512;2022-12-18T05:16:00;0.70;;;0.70;;
10827;SDS011;5467;59.334;13.512;2022-12-18T05:18:28;0.50;;;0.50;;
10827;SDS011;5467;59.334;13.512;2022-12-18T05:20:55;0.70;;;0.70;;
10827;SDS011;5467;59.334;13.512;2022-12-18T05:23:23;0.70;;;0.70;;
10827;SDS011;5467;59.334;13.512;2022-12-18T05:25:52;0.60;;;0.60;;
10827;SDS011;5467;59.334;13.512;2022-12-18T05:28:21;0.60;;;0.60;;
10827;SDS011;5467;59.334;13.512;2022-12-18T05:30:49;0.77;;;0.77;;
10827;SDS011;5467;59.334;13.512;2022-12-18T05:33:17;0.60;;;0.60;;
10827;SDS011;5467;59.334;13.512;2022-12-18T05:35:49;0.53;;;0.53;;
10827;SDS011;5467;59.334;13.512;2022-12-18T05:38:16;0.50;;;0.50;;
10827;SDS011;5467;59.334;13.512;2022-12-18T05:40:44;0.63;;;0.63;;
10827;SDS011;5467;59.334;13.512;2022-12-18T05:43:12;0.50;;;0.50;;
10827;SDS011;5467;59.334;13.512;2022-12-18T05:45:40;0.70;;;0.70;;
10827;SDS011;5467;59.334;13.512;2022-12-18T05:48:07;0.57;;;0.57;;
10827;SDS011;5467;59.334;13.512;2022-12-18T05:50:35;0.60;;;0.60;;
10827;SDS011;5467;59.334;13.512;2022-12-18T05:53:03;0.60;;;0.60;;
10827;SDS011;5467;59.334;13.512;2022-12-18T05:55:32;0.60;;;0.60;;
10827;SDS011;5467;59.334;13.512;2022-12-18T05:57:59;0.43;;;0.43;;
10827;SDS011;5467;59.334;13.512;2022-12-18T06:00:28;0.60;;;0.60;;
10827;SDS011;5467;59.334;13.512;2022-12-18T06:02:57;0.50;;;0.50;;
10827;SDS011;5467;59.334;13.512;2022-12-18T06:05:26;0.50;;;0.50;;
10827;SDS011;5467;59.334;13.512;2022-12-18T06:07:54;0.60;;;0.60;;
10827;SDS011;5467;59.334;13.512;2022-12-18T06:10:21;0.50;;;0.50;;
10827;SDS011;5467;59.334;13.512;2022-12-18T06:12:48;0.60;;;0.60;;
10827;SDS011;5467;59.334;13.512;2022-12-18T06:15:15;0.60;;;0.60;;
10827;SDS011;5467;59.334;13.512;2022-12-18T06:17:43;0.60;;;0.60;;
10827;SDS011;5467;59.334;13.512;2022-12-18T06:20:11;0.60;;;0.60;;
10827;SDS011;5467;59.334;13.512;2022-12-18T06:22:38;0.73;;;0.73;;
10827;SDS011;5467;59.334;13.512;2022-12-18T06:25:05;0.50;;;0.50;;
10827;SDS011;5467;59.334;13.512;2022-12-18T06:27:33;0.60;;;0.60;;
10827;SDS011;5467;59.334;13.512;2022-12-18T06:30:01;0.53;;;0.53;;
10827;SDS011;5467;59.334;13.512;2022-12-18T06:32:28;0.50;;;0.50;;
10827;SDS011;5467;59.334;13.512;2022-12-18T06:34:56;0.70;;;0.70;;
10827;SDS011;5467;59.334;13.512;2022-12-18T06:37:24;0.60;;;0.60;;
10827;SDS011;5467;59.334;13.512;2022-12-18T06:39:51;0.60;;;0.60;;
10827;SDS011;5467;59.334;13.512;2022-12-18T06:42:24;0.67;;;0.67;;
10827;SDS011;5467;59.334;13.512;2022-12-18T06:44:51;0.50;;;0.50;;
10827;SDS011;5467;59.334;13.512;2022-12-18T06:47:18;0.60;;;0.60;;
10827;SDS011;5467;59.334;13.512;2022-12-18T06:49:45;0.60;;;0.60;;
10827;SDS011;5467;59.334;13.512;2022-12-18T06:52:17;0.50;;;0.50;;
10827;SDS011;5467;59.334;13.512;2022-12-18T06:54:44;0.50;;;0.50;;
10827;SDS011;5467;59.334;13.512;2022-12-18T06:57:11;0.40;;;0.40;;
10827;SDS011;5467;59.334;13.512;2022-12-18T06:59:38;0.40;;;0.40;;
10827;SDS011;5467;59.334;13.512;2022-12-18T07:02:05;0.40;;;0.40;;
10827;SDS011;5467;59.334;13.512;2022-12-18T07:04:32;0.57;;;0.57;;
10827;SDS011;5467;59.334;13.512;2022-12-18T07:06:59;0.50;;;0.50;;
10827;SDS011;5467;59.334;13.512;2022-12-18T07:09:28;0.40;;;0.40;;
10827;SDS011;5467;59.334;13.512;2022-12-18T07:11:55;0.40;;;0.40;;
10827;SDS011;5467;59.334;13.512;2022-12-18T07:14:22;0.40;;;0.40;;
10827;SDS011;5467;59.334;13.512;2022-12-18T07:16:49;0.50;;;0.50;;
10827;SDS011;5467;59.334;13.512;2022-12-18T07:19:16;0.40;;;0.40;;
10827;SDS011;5467;59.334;13.512;2022-12-18T07:21:43;0.40;;;0.40;;
10827;SDS011;5467;59.334;13.512;2022-12-18T07:24:10;0.50;;;0.50;;
10827;SDS011;5467;59.334;13.512;2022-12-18T07:26:39;0.50;;;0.50;;
10827;SDS011;5467;59.334;13.512;2022-12-18T07:29:06;0.40;;;0.40;;
10827;SDS011;5467;59.334;13.512;2022-12-18T07:31:33;0.50;;;0.50;;
10827;SDS011;5467;59.334;13.512;2022-12-18T07:34:00;0.40;;;0.40;;
10827;SDS011;5467;59.334;13.512;2022-12-18T07:36:27;0.50;;;0.50;;
10827;SDS011;5467;59.334;13.512;2022-12-18T07:38:54;0.40;;;0.40;;
10827;SDS011;5467;59.334;13.512;2022-12-18T07:41:22;0.50;;;0.50;;
10827;SDS011;5467;59.334;13.512;2022-12-18T07:43:50;0.50;;;0.50;;
10827;SDS011;5467;59.334;13.512;2022-12-18T07:46:17;0.60;;;0.60;;
10827;SDS011;5467;59.334;13.512;2022-12-18T07:48:45;0.40;;;0.40;;
10827;SDS011;5467;59.334;13.512;2022-12-18T07:51:12;0.40;;;0.40;;
10827;SDS011;5467;59.334;13.512;2022-12-18T07:53:39;0.50;;;0.50;;
10827;SDS011;5467;59.334;13.512;2022-12-18T07:56:08;0.50;;;0.50;;
10827;SDS011;5467;59.334;13.512;2022-12-18T07:58:36;0.43;;;0.43;;
10827;SDS011;5467;59.334;13.512;2022-12-18T08:01:06;0.40;;;0.40;;
10827;SDS011;5467;59.334;13.512;2022-12-18T08:03:34;0.50;;;0.50;;
10827;SDS011;5467;59.334;13.512;2022-12-18T08:06:01;0.40;;;0.40;;
10827;SDS011;5467;59.334;13.512;2022-12-18T08:08:29;0.40;;;0.40;;
10827;SDS011;5467;59.334;13.512;2022-12-18T08:10:57;0.60;;;0.60;;
10827;SDS011;5467;59.334;13.512;2022-12-18T08:13:24;0.47;;;0.47;;
10827;SDS011;5467;59.334;13.512;2022-12-18T08:15:55;0.50;;;0.50;;
10827;SDS011;5467;59.334;13.512;2022-12-18T08:18:24;0.50;;;0.50;;
10827;SDS011;5467;59.334;13.512;2022-12-18T08:20:51;0.60;;;0.60;;
10827;SDS011;5467;59.334;13.512;2022-12-18T08:23:19;0.60;;;0.60;;
10827;SDS011;5467;59.334;13.512;2022-12-18T08:25:46;0.50;;;0.50;;
10827;SDS011;5467;59.334;13.512;2022-12-18T08:28:16;0.50;;;0.50;;
10827;SDS011;5467;59.334;13.512;2022-12-18T08:30:43;0.50;;;0.50;;
10827;SDS011;5467;59.334;13.512;2022-12-18T08:33:11;0.53;;;0.53;;
10827;SDS011;5467;59.334;13.512;2022-12-18T08:35:40;0.50;;;0.50;;
10827;SDS011;5467;59.334;13.512;2022-12-18T08:38:07;0.50;;;0.50;;
10827;SDS011;5467;59.334;13.512;2022-12-18T08:40:34;0.50;;;0.50;;
10827;SDS011;5467;59.334;13.512;2022-12-18T08:43:01;0.50;;;0.50;;
10827;SDS011;5467;59.334;13.512;2022-12-18T08:45:45;0.47;;;0.47;;
10827;SDS011;5467;59.334;13.512;2022-12-18T08:48:12;0.40;;;0.40;;
10827;SDS011;5467;59.334;13.512;2022-12-18T08:50:41;0.40;;;0.40;;
10827;SDS011;5467;59.334;13.512;2022-12-18T08:53:08;0.50;;;0.50;;
10827;SDS011;5467;59.334;13.512;2022-12-18T08:55:35;0.50;;;0.50;;
10827;SDS011;5467;59.334;13.512;2022-12-18T08:58:02;0.43;;;0.43;;
10827;SDS011;5467;59.334;13.512;2022-12-18T09:00:29;0.40;;;0.40;;
10827;SDS011;5467;59.334;13.512;2022-12-18T09:02:59;0.40;;;0.40;;
10827;SDS011;5467;59.334;13.512;2022-12-18T09:05:27;0.40;;;0.40;;
10827;SDS011;5467;59.334;13.512;2022-12-18T09:07:55;0.60;;;0.60;;
10827;SDS011;5467;59.334;13.512;2022-12-18T09:10:22;0.60;;;0.60;;
10827;SDS011;5467;59.334;13.512;2022-12-18T09:12:49;0.50;;;0.50;;
10827;SDS011;5467;59.334;13.512;2022-12-18T09:15:16;0.40;;;0.40;;
10827;SDS011;5467;59.334;13.512;2022-12-18T09:17:43;0.57;;;0.57;;
10827;SDS011;5467;59.334;13.512;2022-12-18T09:20:10;0.50;;;0.50;;
10827;SDS011;5467;59.334;13.512;2022-12-18T09:22:37;0.60;;;0.60;;
10827;SDS011;5467;59.334;13.512;2022-12-18T09:25:06;0.73;;;0.73;;
10827;SDS011;5467;59.334;13.512;2022-12-18T09:27:33;0.60;;;0.60;;
10827;SDS011;5467;59.334;13.512;2022-12-18T09:30:01;0.60;;;0.60;;
10827;SDS011;5467;59.334;13.512;2022-12-18T09:32:28;0.70;;;0.70;;
10827;SDS011;5467;59.334;13.512;2022-12-18T09:34:55;0.60;;;0.60;;
10827;SDS011;5467;59.334;13.512;2022-12-18T09:37:22;0.50;;;0.50;;
10827;SDS011;5467;59.334;13.512;2022-12-18T09:39:49;0.70;;;0.70;;
10827;SDS011;5467;59.334;13.512;2022-12-18T09:42:19;0.60;;;0.60;;
10827;SDS011;5467;59.334;13.512;2022-12-18T09:44:49;0.60;;;0.60;;
10827;SDS011;5467;59.334;13.512;2022-12-18T09:47:18;0.70;;;0.70;;
10827;SDS011;5467;59.334;13.512;2022-12-18T09:49:49;0.60;;;0.60;;
10827;SDS011;5467;59.334;13.512;2022-12-18T09:52:20;0.60;;;0.60;;
10827;SDS011;5467;59.334;13.512;2022-12-18T09:54:50;0.70;;;0.70;;
10827;SDS011;5467;59.334;13.512;2022-12-18T09:57:22;0.60;;;0.60;;
10827;SDS011;5467;59.334;13.512;2022-12-18T09:59:52;0.50;;;0.50;;
10827;SDS011;5467;59.334;13.512;2022-12-18T10:02:23;0.60;;;0.60;;
10827;SDS011;5467;59.334;13.512;2022-12-18T10:04:55;0.60;;;0.60;;
10827;SDS011;5467;59.334;13.512;2022-12-18T10:07:32;0.90;;;0.90;;
10827;SDS011;5467;59.334;13.512;2022-12-18T10:10:07;0.60;;;0.60;;
10827;SDS011;5467;59.334;13.512;2022-12-18T10:12:43;0.60;;;0.60;;
10827;SDS011;5467;59.334;13.512;2022-12-18T10:15:17;0.50;;;0.50;;
10827;SDS011;5467;59.334;13.512;2022-12-18T10:17:51;0.60;;;0.60;;
10827;SDS011;5467;59.334;13.512;2022-12-18T10:20:24;0.60;;;0.60;;
10827;SDS011;5467;59.334;13.512;2022-12-18T10:23:00;0.50;;;0.50;;
10827;SDS011;5467;59.334;13.512;2022-12-18T10:25:34;0.50;;;0.50;;
10827;SDS011;5467;59.334;13.512;2022-12-18T10:28:12;0.60;;;0.60;;
10827;SDS011;5467;59.334;13.512;2022-12-18T10:30:40;0.63;;;0.63;;
10827;SDS011;5467;59.334;13.512;2022-12-18T10:33:09;0.67;;;0.67;;
10827;SDS011;5467;59.334;13.512;2022-12-18T10:35:39;0.60;;;0.60;;
10827;SDS011;5467;59.334;13.512;2022-12-18T10:38:20;0.60;;;0.60;;
10827;SDS011;5467;59.334;13.512;2022-12-18T10:40:49;0.70;;;0.70;;
10827;SDS011;5467;59.334;13.512;2022-12-18T10:43:23;0.60;;;0.60;;
10827;SDS011;5467;59.334;13.512;2022-12-18T10:46:11;0.60;;;0.60;;
10827;SDS011;5467;59.334;13.512;2022-12-18T10:48:47;0.50;;;0.50;;
10827;SDS011;5467;59.334;13.512;2022-12-18T10:51:21;0.70;;;0.70;;
10827;SDS011;5467;59.334;13.512;2022-12-18T10:53:51;0.70;;;0.70;;
10827;SDS011;5467;59.334;13.512;2022-12-18T10:56:23;0.60;;;0.60;;
10827;SDS011;5467;59.334;13.512;2022-12-18T10:58:59;0.60;;;0.60;;
10827;SDS011;5467;59.334;13.512;2022-12-18T11:01:27;0.50;;;0.50;;
10827;SDS011;5467;59.334;13.512;2022-12-18T11:03:59;0.60;;;0.60;;
10827;SDS011;5467;59.334;13.512;2022-12-18T11:06:29;0.60;;;0.60;;
10827;SDS011;5467;59.334;13.512;2022-12-18T11:09:00;0.63;;;0.63;;
10827;SDS011;5467;59.334;13.512;2022-12-18T11:11:28;0.70;;;0.70;;
10827;SDS011;5467;59.334;13.512;2022-12-18T11:14:00;0.60;;;0.60;;
10827;SDS011;5467;59.334;13.512;2022-12-18T11:16:29;0.70;;;0.70;;
10827;SDS011;5467;59.334;13.512;2022-12-18T11:19:13;0.70;;;0.70;;
10827;SDS011;5467;59.334;13.512;2022-12-18T11:21:47;0.70;;;0.70;;
10827;SDS011;5467;59.334;13.512;2022-12-18T11:24:19;0.80;;;0.80;;
10827;SDS011;5467;59.334;13.512;2022-12-18T11:26:51;0.70;;;0.70;;
10827;SDS011;5467;59.334;13.512;2022-12-18T11:29:28;0.77;;;0.77;;
10827;SDS011;5467;59.334;13.512;2022-12-18T11:34:58;0.70;;;0.70;;
10827;SDS011;5467;59.334;13.512;2022-12-18T11:37:29;0.70;;;0.70;;
10827;SDS011;5467;59.334;13.512;2022-12-18T11:39:58;0.70;;;0.70;;
10827;SDS011;5467;59.334;13.512;2022-12-18T11:42:32;0.70;;;0.70;;
10827;SDS011;5467;59.334;13.512;2022-12-18T11:47:59;0.87;;;0.87;;
10827;SDS011;5467;59.334;13.512;2022-12-18T11:50:32;0.83;;;0.83;;
10827;SDS011;5467;59.334;13.512;2022-12-18T11:53:11;0.90;;;0.90;;
10827;SDS011;5467;59.334;13.512;2022-12-18T11:55:41;0.73;;;0.73;;
10827;SDS011;5467;59.334;13.512;2022-12-18T11:58:17;0.70;;;0.70;;
10827;SDS011;5467;59.334;13.512;2022-12-18T12:00:59;0.90;;;0.90;;
10827;SDS011;5467;59.334;13.512;2022-12-18T12:03:44;0.80;;;0.80;;
10827;SDS011;5467;59.334;13.512;2022-12-18T12:06:21;0.80;;;0.80;;
10827;SDS011;5467;59.334;13.512;2022-12-18T12:08:59;0.80;;;0.80;;
10827;SDS011;5467;59.334;13.512;2022-12-18T12:11:35;0.70;;;0.70;;
10827;SDS011;5467;59.334;13.512;2022-12-18T12:14:21;0.80;;;0.80;;
10827;SDS011;5467;59.334;13.512;2022-12-18T12:17:01;0.90;;;0.90;;
10827;SDS011;5467;59.334;13.512;2022-12-18T12:19:39;0.90;;;0.90;;
10827;SDS011;5467;59.334;13.512;2022-12-18T12:22:13;0.73;;;0.73;;
10827;SDS011;5467;59.334;13.512;2022-12-18T12:24:49;0.80;;;0.80;;
10827;SDS011;5467;59.334;13.512;2022-12-18T12:27:28;0.80;;;0.80;;
10827;SDS011;5467;59.334;13.512;2022-12-18T12:30:03;0.70;;;0.70;;
10827;SDS011;5467;59.334;13.512;2022-12-18T12:32:59;1.20;;;1.20;;
10827;SDS011;5467;59.334;13.512;2022-12-18T12:35:40;0.80;;;0.80;;
10827;SDS011;5467;59.334;13.512;2022-12-18T12:38:13;0.70;;;0.70;;
10827;SDS011;5467;59.334;13.512;2022-12-18T12:40:47;0.73;;;0.73;;
10827;SDS011;5467;59.334;13.512;2022-12-18T12:43:22;0.80;;;0.80;;
10827;SDS011;5467;59.334;13.512;2022-12-18T12:46:03;0.70;;;0.70;;
10827;SDS011;5467;59.334;13.512;2022-12-18T12:48:41;0.80;;;0.80;;
10827;SDS011;5467;59.334;13.512;2022-12-18T12:51:16;0.70;;;0.70;;
10827;SDS011;5467;59.334;13.512;2022-12-18T12:53:45;0.70;;;0.70;;
10827;SDS011;5467;59.334;13.512;2022-12-18T12:56:14;0.80;;;0.80;;
10827;SDS011;5467;59.334;13.512;2022-12-18T12:58:46;0.70;;;0.70;;
10827;SDS011;5467;59.334;13.512;2022-12-18T13:01:27;0.70;;;0.70;;
10827;SDS011;5467;59.334;13.512;2022-12-18T13:04:07;0.70;;;0.70;;
10827;SDS011;5467;59.334;13.512;2022-12-18T13:06:43;0.80;;;0.80;;
10827;SDS011;5467;59.334;13.512;2022-12-18T13:09:13;0.80;;;0.80;;
10827;SDS011;5467;59.334;13.512;2022-12-18T13:11:41;0.70;;;0.70;;
10827;SDS011;5467;59.334;13.512;2022-12-18T13:14:27;0.70;;;0.70;;
10827;SDS011;5467;59.334;13.512;2022-12-18T13:20:08;0.80;;;0.80;;
10827;SDS011;5467;59.334;13.512;2022-12-18T13:22:37;0.70;;;0.70;;
10827;SDS011;5467;59.334;13.512;2022-12-18T13:27:57;0.70;;;0.70;;
10827;SDS011;5467;59.334;13.512;2022-12-18T13:30:44;0.90;;;0.90;;
10827;SDS011;5467;59.334;13.512;2022-12-18T13:36:12;0.73;;;0.73;;
10827;SDS011;5467;59.334;13.512;2022-12-18T13:38:41;0.90;;;0.90;;
10827;SDS011;5467;59.334;13.512;2022-12-18T13:41:22;0.70;;;0.70;;
10827;SDS011;5467;59.334;13.512;2022-12-18T13:43:51;0.80;;;0.80;;
10827;SDS011;5467;59.334;13.512;2022-12-18T13:46:20;0.80;;;0.80;;
10827;SDS011;5467;59.334;13.512;2022-12-18T13:48:51;0.70;;;0.70;;
10827;SDS011;5467;59.334;13.512;2022-12-18T13:51:25;0.70;;;0.70;;
10827;SDS011;5467;59.334;13.512;2022-12-18T13:53:53;0.70;;;0.70;;
10827;SDS011;5467;59.334;13.512;2022-12-18T13:56:23;0.70;;;0.70;;
10827;SDS011;5467;59.334;13.512;2022-12-18T14:01:48;0.80;;;0.80;;
10827;SDS011;5467;59.334;13.512;2022-12-18T14:04:20;0.70;;;0.70;;
10827;SDS011;5467;59.334;13.512;2022-12-18T14:06:51;0.70;;;0.70;;
10827;SDS011;5467;59.334;13.512;2022-12-18T14:09:22;0.80;;;0.80;;
10827;SDS011;5467;59.334;13.512;2022-12-18T14:11:52;0.80;;;0.80;;
10827;SDS011;5467;59.334;13.512;2022-12-18T14:14:43;0.70;;;0.70;;
10827;SDS011;5467;59.334;13.512;2022-12-18T14:17:12;0.70;;;0.70;;
10827;SDS011;5467;59.334;13.512;2022-12-18T14:19:41;0.80;;;0.80;;
10827;SDS011;5467;59.334;13.512;2022-12-18T14:22:16;0.80;;;0.80;;
10827;SDS011;5467;59.334;13.512;2022-12-18T14:24:44;0.80;;;0.80;;
10827;SDS011;5467;59.334;13.512;2022-12-18T14:27:13;0.80;;;0.80;;
10827;SDS011;5467;59.334;13.512;2022-12-18T14:29:48;0.80;;;0.80;;
10827;SDS011;5467;59.334;13.512;2022-12-18T14:32:16;0.70;;;0.70;;
10827;SDS011;5467;59.334;13.512;2022-12-18T14:34:44;0.70;;;0.70;;
10827;SDS011;5467;59.334;13.512;2022-12-18T14:37:13;0.77;;;0.77;;
10827;SDS011;5467;59.334;13.512;2022-12-18T14:39:53;0.80;;;0.80;;
10827;SDS011;5467;59.334;13.512;2022-12-18T14:42:21;0.80;;;0.80;;
10827;SDS011;5467;59.334;13.512;2022-12-18T14:47:52;0.80;;;0.80;;
10827;SDS011;5467;59.334;13.512;2022-12-18T14:50:19;0.70;;;0.70;;
10827;SDS011;5467;59.334;13.512;2022-12-18T14:52:48;0.70;;;0.70;;
10827;SDS011;5467;59.334;13.512;2022-12-18T14:55:15;0.70;;;0.70;;
10827;SDS011;5467;59.334;13.512;2022-12-18T14:57:43;0.80;;;0.80;;
10827;SDS011;5467;59.334;13.512;2022-12-18T15:00:15;0.83;;;0.83;;
10827;SDS011;5467;59.334;13.512;2022-12-18T15:02:45;0.70;;;0.70;;
10827;SDS011;5467;59.334;13.512;2022-12-18T15:05:17;0.70;;;0.70;;
10827;SDS011;5467;59.334;13.512;2022-12-18T15:07:48;0.70;;;0.70;;
10827;SDS011;5467;59.334;13.512;2022-12-18T15:10:17;0.80;;;0.80;;
10827;SDS011;5467;59.334;13.512;2022-12-18T15:12:46;0.80;;;0.80;;
10827;SDS011;5467;59.334;13.512;2022-12-18T15:18:14;0.70;;;0.70;;
10827;SDS011;5467;59.334;13.512;2022-12-18T15:20:43;0.70;;;0.70;;
10827;SDS011;5467;59.334;13.512;2022-12-18T15:23:16;0.70;;;0.70;;
10827;SDS011;5467;59.334;13.512;2022-12-18T15:25:45;0.70;;;0.70;;
10827;SDS011;5467;59.334;13.512;2022-12-18T15:28:16;0.80;;;0.80;;
10827;SDS011;5467;59.334;13.512;2022-12-18T15:30:57;0.80;;;0.80;;